Date,TemperatureHighF,TemperatureAvgF,TemperatureLowF,DewpointHighF,DewpointAvgF,DewpointLowF,HumidityHigh,HumidityAvg,HumidityLow,PressureMaxIn,PressureMinIn,WindSpeedMaxMPH,WindSpeedAvgMPH,GustSpeedMaxMPH,PrecipitationSumIn
2014-1-1,65.1,43.3,29.4,42.0,33.9,28.0,97,74,29,30.17,30.08,1,0,2,0.00
2014-1-2,65.6,46.5,33.9,39.0,35.9,32.0,95,70,36,30.15,30.01,1,0,3,0.00
2014-1-3,69.7,46.9,33.6,42.0,36.6,32.0,96,72,31,30.04,29.91,1,0,3,0.00
2014-1-4,69.1,45.4,33.1,44.0,34.8,30.0,97,71,28,30.04,29.94,1,0,3,0.00
2014-1-5,67.7,46.4,33.6,32.0,26.7,21.0,80,52,17,30.17,30.04,3,0,5,0.00
2014-1-6,59.6,47.8,33.5,37.0,33.0,27.0,83,59,33,30.25,30.13,1,0,4,0.00
2014-1-7,65.0,48.6,35.3,51.0,38.3,31.0,87,71,36,30.17,30.08,4,0,6,0.00
2014-1-8,60.4,51.6,42.3,51.0,47.7,41.0,96,87,67,30.18,30.09,6,1,10,0.00
2014-1-9,63.2,53.0,43.5,51.0,44.3,39.0,97,75,48,30.21,30.13,8,1,12,0.00
2014-1-10,66.2,48.4,37.4,49.0,41.9,36.0,96,80,49,30.26,30.13,2,0,3,0.00
2014-1-11,57.0,46.7,39.0,55.0,44.7,38.0,97,92,81,30.24,30.10,4,0,7,0.01
2014-1-12,62.9,50.1,38.6,46.0,40.0,36.0,97,72,43,30.36,30.22,5,0,9,0.01
2014-1-13,64.7,46.2,35.5,41.0,36.9,33.0,92,73,41,30.43,30.30,2,0,4,0.00
2014-1-14,68.3,45.3,31.2,43.0,34.2,30.0,97,71,29,30.43,30.28,2,0,4,0.00
2014-1-15,69.8,49.1,36.9,41.0,35.8,33.0,86,64,30,30.32,30.16,3,0,6,0.00
2014-1-16,71.0,49.8,37.3,39.0,35.2,31.0,81,61,30,30.21,30.09,1,0,5,0.00
2014-1-17,69.8,47.9,33.8,43.0,36.4,29.0,89,68,33,30.16,30.07,3,0,5,0.00
2014-1-18,73.8,46.0,30.0,39.0,31.7,26.0,96,65,21,30.15,30.03,1,0,3,0.00
2014-1-19,69.2,46.9,32.2,38.0,34.1,29.0,90,65,32,30.11,30.02,3,0,4,0.00
2014-1-20,71.0,48.4,32.0,39.0,31.9,29.0,92,59,23,30.19,30.07,2,0,3,0.00
2014-1-21,69.9,44.7,29.4,37.0,30.0,27.0,94,63,23,30.24,30.12,1,0,3,0.00
2014-1-22,74.5,47.0,31.3,36.0,32.2,28.0,91,64,22,30.13,29.88,1,0,3,0.00
2014-1-23,69.7,49.2,34.4,38.0,33.7,31.0,93,61,26,29.98,29.83,2,0,6,0.00
2014-1-24,72.2,50.9,36.2,45.0,35.4,32.0,88,61,25,30.23,29.97,1,0,5,0.00
2014-1-25,75.3,51.5,37.2,44.0,35.6,30.0,93,61,20,30.23,30.08,2,0,3,0.00
2014-1-26,72.9,50.7,37.9,42.0,35.9,32.0,94,63,23,30.10,29.98,4,0,4,0.00
2014-1-27,66.2,49.6,36.9,50.0,43.7,36.0,97,82,55,30.14,30.03,2,0,6,0.00
2014-1-28,68.9,57.9,47.9,58.0,52.7,46.0,93,83,60,30.21,30.13,5,0,9,0.00
2014-1-29,60.9,56.6,52.5,57.0,52.8,47.0,93,87,76,30.15,29.94,3,0,5,0.00
2014-1-30,62.4,53.7,48.8,50.0,46.9,43.0,95,79,57,29.94,29.79,6,1,13,0.04
2014-1-31,63.2,50.6,36.9,43.0,36.2,26.0,96,62,26,30.04,29.86,8,1,15,0.00
2014-2-1,62.5,46.8,32.5,39.0,34.7,28.0,95,67,28,30.12,30.01,5,1,10,0.00
2014-2-2,46.1,43.8,38.7,43.0,41.3,37.0,96,91,83,30.00,29.82,3,0,7,0.41
2014-2-3,56.5,43.2,31.3,44.0,37.4,30.0,97,82,56,30.03,29.94,4,1,12,0.01
2014-2-4,60.3,43.8,32.3,41.0,36.7,31.0,96,78,46,30.13,30.03,2,0,6,0.00
2014-2-5,54.9,42.9,29.5,43.0,37.2,28.0,97,82,53,30.16,30.02,3,0,9,0.23
2014-2-6,50.9,47.1,44.0,49.0,45.8,42.0,96,95,92,30.02,29.88,3,0,8,0.23
2014-2-7,54.8,51.3,46.3,53.0,49.8,45.0,97,94,88,30.03,29.92,2,0,9,0.01
2014-2-8,59.8,56.6,53.1,58.0,55.2,52.0,97,95,92,30.08,29.97,3,0,7,0.91
2014-2-9,59.7,57.8,55.4,58.0,56.7,54.0,97,96,93,30.08,30.00,3,0,9,0.94
2014-2-10,62.8,54.8,48.6,56.0,52.5,48.0,97,92,78,30.24,30.05,4,0,7,0.00
2014-2-11,66.2,50.6,41.3,54.0,47.3,41.0,98,89,66,30.21,30.11,3,0,6,0.00
2014-2-12,64.1,51.2,41.9,54.0,48.2,41.0,98,90,70,30.24,30.14,3,0,5,0.00
2014-2-13,68.7,58.2,47.8,60.0,54.6,47.0,98,89,72,30.17,30.04,4,0,8,0.00
2014-2-14,66.2,57.3,51.2,58.0,53.1,49.0,98,87,63,30.12,30.01,6,1,11,0.00
2014-2-15,61.5,55.1,48.3,55.0,52.4,47.0,97,91,78,30.00,29.94,3,0,7,0.00
2014-2-16,67.1,52.9,39.6,53.0,42.6,33.0,98,73,30,30.17,29.99,5,0,10,0.00
2014-2-17,62.2,49.8,35.9,48.0,42.2,35.0,97,78,50,30.14,30.06,8,1,12,0.00
2014-2-18,64.9,52.6,42.6,51.0,46.4,41.0,97,81,54,30.16,30.04,11,1,11,0.00
2014-2-19,66.7,55.5,44.0,53.0,45.9,40.0,94,72,45,30.17,30.03,6,1,13,0.00
2014-2-20,71.8,51.0,37.9,46.0,41.2,37.0,96,74,37,30.18,30.07,2,0,5,0.00
2014-2-21,75.0,52.6,37.5,49.0,42.4,37.0,97,74,29,30.08,29.93,3,0,8,0.00
2014-2-22,75.3,52.7,38.0,52.0,43.9,37.0,97,77,32,29.98,29.87,3,0,5,0.01
2014-2-23,74.0,50.9,39.3,55.0,45.1,38.0,97,83,48,29.99,29.89,2,0,6,0.00
2014-2-24,77.0,52.3,35.5,52.0,42.8,35.0,97,76,33,29.97,29.86,2,0,6,0.01
2014-2-25,68.4,50.9,38.7,52.0,45.3,38.0,97,83,52,29.94,29.85,4,0,11,0.00
2014-2-26,58.0,54.8,50.0,56.0,52.0,47.0,95,90,82,29.92,29.62,7,1,13,1.67
2014-2-27,65.1,57.5,52.8,54.0,50.7,49.0,92,79,57,29.84,29.48,5,1,9,0.03
2014-2-28,59.6,55.2,52.6,55.0,51.8,49.0,95,88,73,29.48,29.33,8,1,13,1.60
2014-3-1,65.5,57.5,51.8,54.0,51.4,49.0,94,81,61,29.77,29.44,6,1,11,0.11
2014-3-2,61.1,54.1,48.7,57.0,51.6,47.0,96,91,75,30.11,29.77,3,0,7,0.16
2014-3-3,60.2,54.8,49.4,54.0,51.7,48.0,96,89,73,30.11,30.00,2,0,5,0.34
2014-3-4,65.8,56.4,51.5,56.0,53.2,50.0,96,89,69,30.09,30.01,3,0,8,0.04
2014-3-5,67.0,59.3,53.4,59.0,55.5,52.0,97,88,66,30.05,29.93,2,0,8,0.18
2014-3-6,66.1,56.5,46.4,56.0,51.8,45.0,97,85,61,30.15,29.99,4,1,11,0.01
2014-3-7,70.4,55.3,43.4,51.0,46.0,42.0,96,74,41,30.14,30.05,5,1,9,0.00
2014-3-8,76.5,56.8,41.5,55.0,47.3,41.0,97,75,35,30.15,30.07,3,0,5,0.01
2014-3-9,71.1,60.4,50.0,57.0,51.6,46.0,92,74,58,30.14,30.02,3,0,4,0.00
2014-3-10,70.5,59.7,51.4,55.0,47.6,38.0,92,67,37,30.20,30.05,10,1,14,0.01
2014-3-11,76.0,59.3,41.0,41.0,32.7,22.0,83,44,17,30.17,29.97,7,1,11,0.00
2014-3-12,78.4,65.4,48.4,36.0,25.5,17.0,59,24,14,30.08,29.96,7,2,16,0.00
2014-3-13,81.8,56.8,37.0,47.0,38.4,26.0,92,58,13,30.02,29.92,5,1,9,0.00
2014-3-14,80.3,56.2,40.8,54.0,46.4,40.0,97,75,31,30.18,30.00,5,0,11,0.00
2014-3-15,84.7,59.7,42.4,56.0,47.3,41.0,97,70,22,30.26,30.17,3,0,6,0.00
2014-3-16,83.5,57.0,39.4,53.0,44.5,37.0,97,69,23,30.27,30.13,7,1,10,0.01
2014-3-17,71.9,56.8,43.7,50.0,45.6,41.0,91,69,41,30.17,29.93,6,1,12,0.00
2014-3-18,76.4,54.4,36.8,48.0,36.4,29.0,96,60,20,29.94,29.85,4,0,9,0.00
2014-3-19,78.2,54.4,34.7,43.0,36.7,32.0,94,58,24,30.04,29.92,3,0,5,0.00
2014-3-20,78.9,55.4,40.9,48.0,41.9,37.0,90,65,30,30.01,29.89,5,1,11,0.00
2014-3-21,73.8,51.4,36.9,54.0,43.6,36.0,97,78,47,29.95,29.88,5,1,12,0.00
2014-3-22,74.4,52.0,35.7,53.0,42.7,35.0,97,75,43,30.07,29.94,5,0,8,0.00
2014-3-23,77.7,53.3,37.1,54.0,44.0,36.0,97,75,40,30.13,30.03,3,0,7,0.01
2014-3-24,81.5,54.6,36.3,53.0,40.6,34.0,97,67,21,30.11,29.96,4,0,9,0.00
2014-3-25,64.1,51.2,38.4,56.0,46.8,35.0,96,85,62,29.99,29.81,5,0,12,0.08
2014-3-26,63.0,53.0,47.4,55.0,48.5,46.0,96,86,59,29.92,29.75,10,1,14,0.48
2014-3-27,63.0,53.8,44.3,54.0,48.3,43.0,97,83,59,30.08,29.92,8,1,11,0.03
2014-3-28,70.2,58.8,50.3,56.0,51.7,49.0,96,79,54,30.13,30.05,5,1,10,0.00
2014-3-29,59.1,55.3,46.8,56.0,52.2,45.0,95,89,79,30.06,29.96,4,0,8,0.88
2014-3-30,62.8,51.0,41.3,48.0,43.1,40.0,97,77,48,30.08,29.98,8,1,13,0.01
2014-3-31,54.7,46.9,40.7,49.0,44.6,39.0,97,92,76,30.03,29.79,2,0,10,0.88
2014-4-1,58.2,46.6,39.9,51.0,43.7,39.0,97,90,65,29.87,29.78,3,0,14,0.34
2014-4-2,63.1,51.3,42.4,48.0,44.4,41.0,97,80,52,30.06,29.83,6,0,11,0.04
2014-4-3,68.9,51.5,39.7,51.0,43.8,39.0,97,79,36,30.08,29.98,3,0,10,0.00
2014-4-4,60.9,52.4,45.0,52.0,48.5,44.0,97,87,64,30.01,29.93,6,1,10,0.35
2014-4-5,68.0,54.8,41.5,51.0,46.1,40.0,97,75,51,30.14,30.01,8,1,14,0.01
2014-4-6,80.9,60.4,42.5,56.0,48.9,41.0,97,70,37,30.19,30.04,6,1,8,0.00
2014-4-7,85.1,63.5,46.6,59.0,52.4,46.0,97,72,37,30.11,30.01,3,0,5,0.00
2014-4-8,87.5,64.0,46.8,63.0,53.6,46.0,97,73,37,30.06,29.96,2,0,6,0.00
2014-4-9,81.2,58.2,43.7,62.0,50.0,43.0,97,78,33,30.04,29.92,3,0,7,0.00
2014-4-10,87.2,59.1,42.8,59.0,49.0,42.0,97,76,24,29.99,29.84,2,0,4,0.01
2014-4-11,73.5,55.6,43.7,59.0,49.8,43.0,97,82,57,29.89,29.80,5,0,7,0.00
2014-4-12,70.6,56.4,46.6,52.0,49.0,45.0,96,78,53,29.89,29.81,7,1,14,0.00
2014-4-13,79.1,60.6,48.1,60.0,50.9,46.0,93,72,47,29.99,29.89,7,1,9,0.00
2014-4-14,80.7,57.8,44.3,63.0,50.5,43.0,96,79,49,30.07,29.96,4,0,6,0.00
2014-4-15,78.9,57.1,43.7,60.0,49.5,42.0,97,79,50,30.01,29.84,5,0,9,0.00
2014-4-16,81.9,59.8,43.8,55.0,47.8,43.0,97,70,36,29.88,29.77,7,1,10,0.00
2014-4-17,78.8,59.0,45.0,58.0,48.8,43.0,97,72,46,29.82,29.75,12,1,12,0.00
2014-4-18,76.9,58.6,45.4,56.0,47.8,42.0,94,69,46,29.89,29.81,8,1,12,0.00
2014-4-19,67.6,55.2,43.4,53.0,47.4,40.0,94,77,42,30.06,29.88,9,2,16,0.00
2014-4-20,85.1,60.5,43.4,55.0,46.1,40.0,97,66,23,30.10,29.99,6,1,10,0.00
2014-4-21,71.5,56.0,40.6,51.0,44.5,38.0,90,68,32,30.03,29.91,8,1,13,0.00
2014-4-22,63.3,54.6,44.9,51.0,41.9,37.0,88,64,45,30.07,29.91,11,3,18,0.00
2014-4-23,67.7,54.8,38.6,50.0,42.5,36.0,91,65,40,30.10,30.02,12,2,18,0.00
2014-4-24,68.6,58.6,47.8,55.0,51.6,46.0,95,79,53,30.05,29.93,9,2,12,0.00
2014-4-25,58.7,53.2,45.5,53.0,49.0,42.0,94,86,69,29.93,29.73,6,1,13,0.34
2014-4-26,62.7,51.7,39.6,45.0,41.7,38.0,95,71,45,30.03,29.80,14,2,17,0.01
2014-4-27,67.5,56.5,49.6,54.0,47.9,44.0,93,74,50,30.07,29.97,10,2,13,0.01
2014-4-28,76.2,58.7,41.8,55.0,44.0,33.0,96,63,26,30.18,30.08,9,1,13,0.00
2014-4-29,93.6,66.8,45.1,54.0,47.1,41.0,88,56,23,30.15,29.99,3,0,6,0.00
2014-4-30,92.3,69.5,48.6,55.0,48.8,44.0,94,57,20,30.03,29.94,3,0,7,0.00
2014-5-1,94.1,68.7,46.8,59.0,47.9,35.0,94,55,17,30.04,29.97,7,0,9,0.00
2014-5-2,86.4,62.5,44.2,57.0,48.9,41.0,96,67,23,30.03,29.96,8,1,12,0.00
2014-5-3,68.4,58.6,49.3,51.0,49.3,47.0,92,73,51,29.98,29.92,12,2,18,0.00
2014-5-4,69.0,59.4,49.9,53.0,50.4,47.0,94,73,52,30.01,29.95,9,2,16,0.00
2014-5-5,66.6,57.7,48.3,50.0,46.3,43.0,94,67,48,29.99,29.89,11,3,17,0.00
2014-5-6,70.3,58.6,46.7,50.0,45.0,41.0,82,62,38,29.90,29.80,9,2,16,0.00
2014-5-7,72.3,56.8,42.7,50.0,45.9,41.0,94,69,43,29.94,29.83,8,1,16,0.00
2014-5-8,69.2,58.5,49.5,57.0,51.6,44.0,93,78,63,30.04,29.92,7,1,9,0.00
2014-5-9,68.5,59.4,51.4,55.0,49.9,43.0,94,73,51,30.10,30.03,7,2,17,0.01
2014-5-10,69.0,57.7,42.3,47.0,43.8,40.0,93,62,37,30.08,29.97,8,2,18,0.00
2014-5-11,77.8,63.2,46.0,44.0,39.0,34.0,82,46,22,30.07,29.96,7,2,15,0.00
2014-5-12,92.7,66.2,42.3,51.0,42.1,30.0,95,51,17,30.06,29.99,5,1,12,0.00
2014-5-13,99.1,71.2,45.3,51.0,42.6,32.0,90,45,10,30.08,30.01,4,0,8,0.00
2014-5-14,99.5,73.2,47.6,55.0,42.1,30.0,82,40,16,30.07,29.98,7,1,9,0.00
2014-5-15,91.8,69.3,46.9,50.0,40.4,29.0,77,41,12,30.05,29.99,8,1,11,0.00
2014-5-16,80.7,61.9,44.0,53.0,48.5,42.0,96,66,33,30.02,29.91,6,1,14,0.00
2014-5-17,72.6,60.8,46.9,54.0,49.3,44.0,96,68,48,29.93,29.86,9,2,16,0.00
2014-5-18,71.5,62.2,54.3,54.0,49.1,43.0,80,63,51,29.93,29.87,10,3,17,0.00
2014-5-19,69.6,59.3,50.6,50.0,48.4,46.0,84,69,49,29.90,29.86,11,2,16,0.00
2014-5-20,78.5,60.5,45.9,53.0,49.6,44.0,95,70,39,29.94,29.88,6,1,16,0.00
2014-5-21,83.6,62.3,45.3,59.0,51.1,44.0,96,71,38,29.92,29.83,11,1,16,0.00
2014-5-22,83.0,63.0,48.9,59.0,52.3,47.0,95,71,41,29.97,29.86,5,0,9,0.00
2014-5-23,86.0,65.8,49.5,60.0,53.2,47.0,93,67,41,29.97,29.84,4,1,11,0.00
2014-5-24,81.9,65.2,50.8,59.0,51.8,47.0,91,64,44,29.93,29.84,7,1,13,0.00
2014-5-25,87.1,67.0,46.7,55.0,48.1,43.0,95,57,28,29.93,29.83,7,1,12,0.00
2014-5-26,85.3,68.0,48.8,57.0,48.9,40.0,84,53,36,29.95,29.87,14,1,16,0.00
2014-5-27,77.1,63.4,47.0,50.0,45.9,37.0,92,56,35,29.98,29.91,7,1,12,0.00
2014-5-28,80.2,63.2,44.3,48.0,40.9,34.0,76,46,25,30.01,29.90,15,2,19,0.00
2014-5-29,87.4,65.5,47.4,49.0,42.5,27.0,83,50,12,29.90,29.82,7,1,14,0.00
2014-5-30,72.3,55.1,40.4,51.0,46.8,39.0,96,76,46,29.90,29.85,9,2,15,0.00
2014-5-31,85.6,63.7,49.3,57.0,50.3,47.0,91,66,27,29.93,29.84,3,1,8,0.00
2014-6-1,86.6,62.7,42.4,62.0,50.2,41.0,96,69,34,29.87,29.73,5,0,7,0.00
2014-6-2,75.8,57.6,45.9,55.0,49.6,44.0,96,77,47,29.87,29.76,7,1,11,0.00
2014-6-3,79.9,60.8,50.9,57.0,50.9,48.0,89,72,45,29.91,29.80,5,1,10,0.00
2014-6-4,89.2,64.3,46.1,62.0,51.1,45.0,96,68,28,29.86,29.75,7,1,12,0.00
2014-6-5,85.0,63.9,47.9,60.0,51.0,45.0,95,68,27,29.82,29.72,6,1,10,0.00
2014-6-6,83.1,62.9,49.2,58.0,52.6,48.0,96,72,42,29.80,29.73,8,1,14,0.00
2014-6-7,90.7,64.7,47.3,61.0,52.3,46.0,95,69,32,29.81,29.70,5,1,9,0.00
2014-6-8,99.8,73.9,49.9,63.0,52.7,46.0,95,56,18,29.78,29.65,7,1,11,0.00
2014-6-9,99.0,74.5,54.0,65.0,56.0,50.0,92,58,23,29.70,29.60,5,1,12,0.00
2014-6-10,82.6,65.1,52.7,59.0,54.3,51.0,94,71,39,29.77,29.66,10,2,13,0.00
2014-6-11,74.9,63.1,55.1,57.0,53.5,51.0,90,72,52,29.85,29.76,8,2,13,0.00
2014-6-12,72.0,60.9,52.5,53.0,50.7,48.0,90,71,47,29.91,29.84,8,2,14,0.00
2014-6-13,81.3,65.5,48.4,52.0,49.2,46.0,91,59,35,29.93,29.84,8,1,12,0.00
2014-6-14,88.1,66.2,48.7,56.0,49.2,44.0,92,59,28,29.89,29.76,8,1,12,0.00
2014-6-15,79.1,61.5,48.8,56.0,50.0,45.0,89,68,40,29.76,29.70,8,2,13,0.00
2014-6-16,69.4,60.0,49.3,50.0,47.4,44.0,84,65,47,29.83,29.74,9,2,21,0.00
2014-6-17,81.8,63.6,44.4,47.0,43.5,38.0,88,53,26,29.90,29.82,7,1,12,0.00
2014-6-18,90.4,68.8,47.4,53.0,44.6,35.0,89,50,16,29.90,29.85,7,1,13,0.00
2014-6-19,84.9,63.9,45.4,56.0,49.6,44.0,94,64,36,29.94,29.88,8,1,11,0.00
2014-6-20,86.6,66.7,48.0,55.0,48.3,37.0,95,57,24,29.93,29.85,4,1,13,0.00
2014-6-21,78.0,62.4,49.2,53.0,49.3,47.0,91,65,38,29.86,29.80,8,2,14,0.00
2014-6-22,81.5,61.2,46.4,56.0,50.0,45.0,94,70,40,29.87,29.83,7,2,13,0.00
2014-6-23,85.3,65.4,47.1,57.0,50.3,46.0,96,63,35,29.90,29.82,9,1,11,0.00
2014-6-24,82.1,67.9,54.8,56.0,51.8,45.0,83,58,36,29.92,29.85,7,2,18,0.00
2014-6-25,72.7,63.1,52.9,60.0,56.4,50.0,93,79,63,29.93,29.87,11,3,17,0.00
2014-6-26,74.9,64.7,57.7,57.0,55.3,53.0,88,73,52,29.93,29.89,10,3,14,0.00
2014-6-27,76.8,66.7,55.8,62.0,57.6,53.0,92,74,58,29.93,29.86,8,3,14,0.00
2014-6-28,81.4,67.5,55.1,59.0,54.0,51.0,89,64,43,29.90,29.82,7,2,13,0.00
2014-6-29,96.1,72.6,50.6,58.0,51.9,48.0,92,53,26,29.89,29.75,6,1,11,0.00
2014-6-30,100.2,74.8,54.0,63.0,54.1,47.0,85,54,23,29.78,29.70,5,1,13,0.00
2014-7-1,85.4,66.4,51.0,59.0,53.7,49.0,95,67,36,29.80,29.72,6,1,13,0.00
2014-7-2,83.1,64.8,55.4,60.0,54.9,52.0,88,72,45,29.82,29.77,7,1,11,0.00
2014-7-3,85.2,65.7,50.2,60.0,53.8,48.0,94,68,40,29.87,29.80,7,1,12,0.00
2014-7-4,85.7,63.3,48.6,61.0,52.3,47.0,96,72,32,29.94,29.84,7,1,10,0.00
2014-7-5,91.1,64.2,46.6,61.0,51.1,45.0,96,68,27,30.03,29.94,4,1,9,0.00
2014-7-6,92.2,66.0,45.7,60.0,50.8,44.0,96,65,25,30.01,29.86,4,1,10,0.00
2014-7-7,84.8,65.8,50.3,61.0,55.1,49.0,95,71,44,29.88,29.77,2,0,7,0.00
2014-7-8,87.2,69.7,55.2,61.0,56.5,52.0,91,66,39,29.87,29.79,4,1,7,0.00
2014-7-9,82.9,66.5,54.6,60.0,55.6,52.0,91,71,44,29.91,29.79,6,1,10,0.00
2014-7-10,76.6,64.9,55.7,59.0,55.8,53.0,91,74,53,29.90,29.82,7,1,14,0.00
2014-7-11,74.5,65.2,59.0,57.0,55.0,53.0,87,71,54,30.02,29.89,8,2,17,0.00
2014-7-12,76.8,64.2,56.6,59.0,55.6,53.0,89,75,53,30.04,29.96,7,2,12,0.00
2014-7-13,91.5,69.5,55.2,64.0,56.2,52.0,92,67,33,29.98,29.81,5,1,8,0.00
2014-7-14,99.0,73.4,53.3,64.0,55.2,50.0,92,58,22,29.87,29.79,5,0,9,0.00
2014-7-15,86.2,70.2,57.4,64.0,58.3,54.0,89,68,45,29.95,29.85,5,1,11,0.00
2014-7-16,75.1,66.6,60.9,60.0,58.7,57.0,89,76,58,29.97,29.92,9,3,13,0.00
2014-7-17,75.6,65.1,58.5,60.0,57.5,55.0,94,78,56,29.97,29.90,9,2,15,0.01
2014-7-18,80.0,66.5,59.3,61.0,57.2,55.0,88,74,50,29.98,29.89,7,2,11,0.00
2014-7-19,82.3,67.0,58.8,62.0,57.7,55.0,88,74,48,29.92,29.85,9,2,13,0.00
2014-7-20,74.8,64.4,57.5,60.0,57.9,55.0,90,80,59,29.95,29.86,6,2,13,0.00
2014-7-21,76.3,67.0,60.3,61.0,58.9,57.0,88,76,57,30.01,29.93,7,2,14,0.00
2014-7-22,80.2,67.7,58.5,61.0,58.7,56.0,93,74,48,30.05,29.95,8,2,17,0.04
2014-7-23,79.8,68.9,60.1,62.0,59.7,55.0,90,74,54,30.09,29.96,10,2,15,0.00
2014-7-24,95.0,72.8,53.4,63.0,55.0,44.0,95,59,25,29.98,29.78,7,1,11,0.00
2014-7-25,102.0,75.8,52.4,59.0,50.7,40.0,86,49,13,29.83,29.76,5,1,9,0.00
2014-7-26,96.2,73.4,53.2,62.0,55.3,46.0,92,58,25,29.89,29.81,6,1,7,0.00
2014-7-27,94.0,72.9,58.2,62.0,56.3,49.0,85,61,29,29.94,29.84,5,1,6,0.00
2014-7-28,87.9,68.7,53.0,62.0,55.5,51.0,96,67,34,30.00,29.93,5,1,11,0.00
2014-7-29,94.8,69.7,53.4,63.0,55.4,45.0,95,66,18,30.01,29.90,5,1,10,0.00
2014-7-30,92.4,69.1,52.8,64.0,56.9,52.0,96,69,31,29.96,29.86,5,1,8,0.00
2014-7-31,94.1,68.2,52.2,65.0,56.2,51.0,96,71,31,29.94,29.80,3,1,8,0.00
2014-8-1,95.5,69.8,52.0,65.0,56.2,51.0,96,67,30,29.86,29.78,4,1,9,0.00
2014-8-2,78.0,64.0,53.6,59.0,55.2,52.0,95,75,50,29.90,29.81,8,2,13,0.00
2014-8-3,78.9,63.7,56.8,61.0,55.8,53.0,90,77,51,29.92,29.84,6,2,13,0.00
2014-8-4,79.3,65.2,57.4,61.0,56.5,54.0,89,75,53,29.95,29.88,3,1,8,0.00
2014-8-5,72.7,64.6,58.6,62.0,58.6,56.0,93,81,67,30.02,29.94,4,0,8,0.01
2014-8-6,87.7,71.8,59.3,65.0,59.2,55.0,91,68,37,29.97,29.87,7,1,11,0.00
2014-8-7,87.6,66.4,53.3,63.0,55.9,52.0,96,72,39,29.92,29.80,8,1,10,0.00
2014-8-8,89.0,66.7,50.7,61.0,53.8,49.0,96,67,35,29.87,29.77,5,1,12,0.00
2014-8-9,78.1,62.3,51.2,58.0,53.3,49.0,94,74,47,29.91,29.82,9,2,13,0.00
2014-8-10,84.1,65.1,54.3,61.0,55.6,52.0,92,73,44,29.96,29.86,5,1,10,0.00
2014-8-11,89.1,67.8,52.1,61.0,55.9,51.0,96,70,34,29.91,29.82,3,1,11,0.00
2014-8-12,76.6,63.5,52.3,58.0,55.3,51.0,95,76,51,29.95,29.86,7,1,12,0.00
2014-8-13,81.2,65.6,55.0,60.0,56.2,53.0,92,74,45,29.96,29.87,7,2,14,0.00
2014-8-14,85.4,64.6,51.4,61.0,54.8,50.0,96,74,36,29.92,29.83,6,1,12,0.00
2014-8-15,89.5,66.9,51.7,62.0,55.7,50.0,96,72,39,29.96,29.87,6,1,12,0.00
2014-8-16,88.1,65.8,50.0,62.0,54.4,49.0,97,71,39,30.00,29.89,6,1,8,0.00
2014-8-17,87.6,65.0,50.3,63.0,55.4,49.0,96,74,33,29.98,29.86,6,1,11,0.00
2014-8-18,81.4,63.9,56.8,61.0,56.5,54.0,92,79,49,29.86,29.75,9,2,14,0.00
2014-8-19,78.2,64.1,57.5,61.0,57.3,55.0,93,80,54,29.82,29.75,7,1,11,0.00
2014-8-20,72.7,64.9,59.4,59.0,57.7,56.0,89,78,62,29.89,29.80,8,1,10,0.00
2014-8-21,88.2,68.4,58.2,63.0,58.3,56.0,91,73,43,29.92,29.84,6,1,11,0.00
2014-8-22,82.4,64.0,55.1,61.0,56.7,54.0,96,79,47,29.89,29.82,8,1,14,0.00
2014-8-23,85.5,66.6,56.4,61.0,56.6,53.0,92,73,39,29.91,29.79,5,1,10,0.00
2014-8-24,78.5,65.4,54.0,58.0,55.2,51.0,93,72,46,29.86,29.76,9,2,13,0.00
2014-8-25,76.5,64.7,56.5,58.0,56.0,54.0,92,74,52,29.90,29.78,8,1,12,0.00
2014-8-26,83.5,67.6,57.8,59.0,56.0,54.0,92,69,41,29.97,29.88,7,1,11,0.00
2014-8-27,91.1,69.0,54.8,62.0,56.4,52.0,95,69,31,30.02,29.92,6,1,10,0.00
2014-8-28,93.8,67.6,52.7,61.0,56.1,51.0,96,71,29,30.03,29.87,9,1,10,0.00
2014-8-29,86.4,68.2,58.6,63.0,57.2,53.0,91,71,41,29.90,29.80,8,1,11,0.00
2014-8-30,87.7,71.5,54.2,58.0,55.1,51.0,96,61,31,29.86,29.76,7,1,17,0.00
2014-8-31,89.9,70.3,55.7,60.0,54.7,51.0,92,62,29,29.87,29.75,7,1,10,0.00
2014-9-1,95.6,71.4,51.4,59.0,53.1,49.0,93,59,23,29.80,29.68,7,1,13,0.00
2014-9-2,77.9,63.2,52.2,59.0,55.2,51.0,95,77,52,29.78,29.71,9,1,12,0.00
2014-9-3,88.3,65.9,57.8,61.0,57.1,55.0,91,75,40,29.77,29.64,6,1,11,0.00
2014-9-4,86.9,65.9,54.7,62.0,57.1,53.0,94,76,42,29.75,29.66,6,1,12,0.00
2014-9-5,84.7,65.3,53.0,59.0,55.6,51.0,95,74,40,29.87,29.75,7,1,8,0.00
2014-9-6,84.6,64.6,53.2,59.0,54.3,52.0,95,72,39,29.92,29.82,6,1,10,0.00
2014-9-7,82.5,63.3,52.0,56.0,52.9,50.0,93,72,38,29.86,29.75,7,2,9,0.00
2014-9-8,70.3,60.6,56.0,53.0,52.5,51.0,86,75,54,29.89,29.80,6,2,11,0.00
2014-9-9,86.2,65.9,52.7,60.0,54.8,50.0,92,70,40,29.95,29.83,5,1,9,0.00
2014-9-10,98.8,69.1,49.0,61.0,52.6,42.0,96,65,15,29.91,29.76,4,1,8,0.00
2014-9-11,97.4,68.7,49.7,58.0,52.4,38.0,95,64,14,29.86,29.74,4,0,7,0.00
2014-9-12,97.8,69.1,49.9,60.0,52.6,43.0,97,64,20,29.85,29.73,5,1,6,0.00
2014-9-13,94.3,67.4,52.2,62.0,55.1,50.0,96,70,31,29.81,29.71,4,1,9,0.00
2014-9-14,87.7,67.5,52.3,61.0,53.1,38.0,96,65,27,29.81,29.73,5,1,10,0.00
2014-9-15,80.5,65.7,54.1,59.0,54.5,50.0,95,70,40,29.88,29.78,7,1,14,0.00
2014-9-16,88.2,68.4,54.0,60.0,56.4,52.0,96,70,32,29.88,29.74,6,1,10,0.00
2014-9-17,85.1,69.0,56.8,64.0,57.7,51.0,95,71,33,29.78,29.68,5,1,11,0.02
2014-9-18,80.1,69.3,60.7,66.0,62.8,58.0,95,81,54,29.84,29.72,6,1,9,0.03
2014-9-19,83.9,67.6,56.8,65.0,60.6,55.0,97,80,50,29.87,29.78,6,1,10,0.01
2014-9-20,81.7,67.3,59.8,63.0,60.0,58.0,94,79,53,29.90,29.82,5,1,11,0.00
2014-9-21,76.8,67.0,63.0,61.0,59.1,58.0,85,77,55,29.96,29.88,9,2,14,0.00
2014-9-22,83.8,68.3,59.8,61.0,57.7,55.0,86,71,43,29.98,29.89,7,2,12,0.00
2014-9-23,82.8,67.4,53.0,65.0,60.1,52.0,96,79,53,29.96,29.86,5,1,12,0.00
2014-9-24,77.9,68.9,61.8,67.0,63.4,60.0,96,83,62,29.91,29.87,7,1,13,0.02
2014-9-26,95.6,48.8,57.8,61.0,40.3,55.0,90,49,32,29.81,29.71,2,0,8,0.00
2014-9-27,79.0,64.6,54.8,59.0,55.8,53.0,94,75,45,29.74,29.63,6,1,13,0.01